Time;durP1;ratioP1;P1;durP2;ratioP2;P2;SDS_P1;SDS_P2;PMS_P1;PMS_P2;Temp;Humidity;BMP_temperature;BMP_pressure;BME280_temperature;BME280_humidity;BME280_pressure;Samples;Min_cycle;Max_cycle;Signal;HPM_P1;HPM_P2
2021/11/18 00:05:23;;;;;;;24.20;3.90;;;6.90;99.90;;;;;;6064950;23;20053;-83
2021/11/18 00:08:12;;;;;;;27.45;3.72;;;6.90;99.90;;;;;;6064963;23;20020;-83
2021/11/18 00:23:59;;;;;;;;;;;;;;;;;;;;;
2021/11/18 00:34:38;;;;;;;24.90;3.30;;;7.30;99.90;;;;;;5893903;24;20437;-83
2021/11/18 01:10:25;;;;;;;24.58;3.75;;;7.30;99.90;;;;;;6081690;22;4890146;-84
2021/11/18 01:13:15;;;;;;;36.60;4.03;;;7.30;99.90;;;;;;6104387;23;20040;-83
2021/11/18 01:16:08;;;;;;;39.65;4.45;;;7.20;99.90;;;;;;6104838;23;20017;-84
2021/11/18 01:19:19;;;;;;;24.40;4.00;;;7.00;99.90;;;;;;6104578;23;20074;-83
2021/11/18 01:22:14;;;;;;;29.67;4.32;;;7.30;99.90;;;;;;6072201;23;20129;-83
2021/11/18 01:24:57;;;;;;;29.73;4.43;;;7.30;99.90;;;;;;6030010;23;20015;-83
2021/11/18 01:32:03;;;;;;;;;;;;;;;;;;;;;
2021/11/18 01:47:10;;;;;;;31.00;4.45;;;7.30;99.90;;;;;;5766674;24;20391;-83
2021/11/18 01:50:25;;;;;;;27.08;4.20;;;7.00;99.90;;;;;;5816688;24;20017;-84
2021/11/18 01:57:15;;;;;;;37.92;4.65;;;7.10;99.90;;;;;;5845926;24;20019;-83
2021/11/18 02:32:19;;;;;;;28.95;5.20;;;7.80;99.90;;;;;;6228780;23;20028;-82
2021/11/18 02:35:21;;;;;;;34.55;5.68;;;8.20;99.90;;;;;;6199587;23;20023;-83
2021/11/18 02:37:53;;;;;;;35.75;5.60;;;7.90;99.90;;;;;;6200648;23;20023;-83
2021/11/18 02:40:23;;;;;;;34.70;5.05;;;8.10;99.90;;;;;;6201157;23;20012;-84
2021/11/18 02:43:01;;;;;;;34.05;5.15;;;7.90;99.90;;;;;;6200009;23;20012;-83
2021/11/18 02:45:40;;;;;;;37.67;5.65;;;8.00;99.90;;;;;;6198554;23;20018;-83
2021/11/18 02:48:06;;;;;;;39.53;5.72;;;8.70;99.90;;;;;;6199854;23;20087;-84
2021/11/18 02:50:38;;;;;;;31.05;6.22;;;7.70;99.90;;;;;;6200057;23;20451;-83
2021/11/18 02:53:14;;;;;;;33.78;4.65;;;8.10;99.90;;;;;;6224413;23;20016;-83
2021/11/18 02:55:49;;;;;;;48.85;6.22;;;8.00;99.90;;;;;;6200011;23;20454;-83
2021/11/18 02:58:25;;;;;;;33.53;5.43;;;8.90;99.90;;;;;;6200607;23;20042;-84
2021/11/18 03:01:29;;;;;;;37.95;5.88;;;7.80;99.90;;;;;;6197467;23;20370;-84
2021/11/18 03:04:10;;;;;;;35.83;5.53;;;8.10;99.90;;;;;;6224422;23;20044;-84
2021/11/18 03:06:36;;;;;;;40.47;5.38;;;8.30;99.90;;;;;;6198060;23;20016;-84
2021/11/18 03:09:13;;;;;;;36.28;5.88;;;8.30;99.90;;;;;;6200010;23;20023;-84
2021/11/18 03:11:51;;;;;;;41.95;6.45;;;8.10;99.90;;;;;;6199878;23;20020;-83
2021/11/18 03:14:35;;;;;;;38.40;5.43;;;8.10;99.90;;;;;;6199520;23;20379;-83
2021/11/18 03:17:09;;;;;;;41.63;6.22;;;8.10;99.90;;;;;;6161060;23;20423;-84
2021/11/18 03:19:52;;;;;;;38.63;5.88;;;8.10;99.90;;;;;;6139877;23;20013;-84
2021/11/18 03:22:35;;;;;;;38.53;6.07;;;8.10;99.90;;;;;;6136544;23;20013;-81
2021/11/18 03:25:13;;;;;;;34.33;6.35;;;8.00;99.90;;;;;;6133825;23;20009;-82
2021/11/18 03:27:51;;;;;;;42.72;6.68;;;8.10;99.90;;;;;;6123996;23;20014;-82
2021/11/18 03:30:46;;;;;;;45.70;6.47;;;8.10;99.90;;;;;;6124262;23;20021;-82
2021/11/18 03:34:13;;;;;;;44.78;6.65;;;7.90;99.90;;;;;;6089091;23;20026;-82
2021/11/18 03:37:17;;;;;;;35.42;5.80;;;8.10;99.90;;;;;;5970546;24;20059;-83
2021/11/18 03:40:08;;;;;;;;;;;;;;;;;;;;;
2021/11/18 03:43:36;;;;;;;40.78;6.20;;;8.10;99.90;;;;;;5923568;24;20021;-84
2021/11/18 03:46:13;;;;;;;45.00;6.93;;;7.70;99.90;;;;;;5901691;24;20020;-85
2021/11/18 03:49:44;;;;;;;32.17;5.15;;;8.10;99.90;;;;;;5970220;24;20023;-83
2021/11/18 03:56:38;;;;;;;;;;;;;;;;;;;;;
2021/11/18 03:59:33;;;;;;;40.88;6.60;;;8.30;99.90;;;;;;5916212;24;20021;-83
2021/11/18 04:02:43;;;;;;;34.78;5.93;;;8.30;99.90;;;;;;5902817;24;20467;-84
2021/11/18 04:06:02;;;;;;;44.60;6.07;;;8.30;99.90;;;;;;5948379;24;20031;-83
2021/11/18 04:08:53;;;;;;;43.45;6.53;;;8.30;99.90;;;;;;5952005;24;20441;-83
2021/11/18 04:23:53;;;;;;;38.95;6.13;;;7.90;99.90;;;;;;5840996;24;20521;-84
2021/11/18 04:58:13;;;;;;;35.85;5.93;;;8.50;99.90;;;;;;6132615;22;3821812;-83
2021/11/18 05:08:22;;;;;;;33.13;6.20;;;8.40;99.90;;;;;;5989524;23;20079;-83
2021/11/18 05:10:55;;;;;;;43.72;6.70;;;8.40;99.90;;;;;;5989612;23;20248;-82
2021/11/18 05:13:31;;;;;;;46.60;6.28;;;8.60;99.90;;;;;;5965284;23;20023;-82
2021/11/18 05:16:00;;;;;;;46.28;6.70;;;8.40;99.90;;;;;;5966139;23;20034;-82
2021/11/18 05:18:29;;;;;;;42.15;6.68;;;8.60;99.90;;;;;;5989431;23;20137;-84
2021/11/18 05:20:59;;;;;;;39.63;6.28;;;8.50;99.90;;;;;;5966001;23;20019;-85
2021/11/18 05:23:33;;;;;;;45.13;5.88;;;8.40;99.90;;;;;;5966467;23;20051;-84
2021/11/18 05:26:08;;;;;;;45.80;5.72;;;8.30;99.90;;;;;;5965216;23;20019;-84
2021/11/18 05:28:38;;;;;;;42.78;6.95;;;9.00;99.90;;;;;;5965209;23;20102;-82
2021/11/18 05:31:32;;;;;;;;;;;;;;;;;;;;;
2021/11/18 05:34:41;;;;;;;44.75;5.70;;;8.40;99.90;;;;;;5986584;24;20015;-82
2021/11/18 05:37:26;;;;;;;44.17;6.38;;;8.20;99.90;;;;;;5943566;24;20469;-83
2021/11/18 05:39:58;;;;;;;46.20;6.28;;;9.20;99.90;;;;;;6009135;23;20033;-82
2021/11/18 05:42:24;;;;;;;38.10;5.90;;;9.00;99.90;;;;;;6047977;23;20049;-81
2021/11/18 05:44:51;;;;;;;35.92;5.80;;;9.20;99.90;;;;;;6081468;23;20012;-82
2021/11/18 05:47:20;;;;;;;48.42;7.40;;;8.40;99.90;;;;;;6150802;23;20144;-83
2021/11/18 05:49:46;;;;;;;42.33;6.97;;;8.40;99.90;;;;;;6151963;23;20017;-78
2021/11/18 05:52:13;;;;;;;38.83;5.82;;;8.70;99.90;;;;;;6160469;23;20192;-82
2021/11/18 05:54:41;;;;;;;37.25;6.38;;;9.10;99.90;;;;;;6138067;23;20477;-83
2021/11/18 05:57:25;;;;;;;;;;;;;;;;;;;;;
2021/11/18 05:59:52;;;;;;;35.15;5.40;;;8.30;99.90;;;;;;6154956;23;20473;-80
2021/11/18 06:02:22;;;;;;;36.00;6.38;;;8.80;99.90;;;;;;6129505;23;20500;-83
2021/11/18 06:05:04;;;;;;;41.83;6.47;;;8.30;99.90;;;;;;6164060;23;20027;-82
2021/11/18 06:08:12;;;;;;;43.10;6.10;;;8.90;99.90;;;;;;6213893;23;20095;-82
2021/11/18 06:11:41;;;;;;;;;;;;;;;;;;;;;
2021/11/18 06:14:26;;;;;;;36.83;6.18;;;8.30;99.90;;;;;;6078298;23;20536;-81
2021/11/18 06:17:10;;;;;;;36.72;6.72;;;9.20;99.90;;;;;;6116034;23;20050;-82
2021/11/18 06:19:39;;;;;;;33.50;6.05;;;7.90;99.90;;;;;;6093044;23;20125;-81
2021/11/18 06:22:05;;;;;;;36.85;5.72;;;8.80;99.90;;;;;;6068544;23;20137;-81
2021/11/18 06:24:30;;;;;;;44.47;6.32;;;8.90;99.90;;;;;;6068143;23;20026;-82
2021/11/18 06:26:57;;;;;;;33.85;5.95;;;8.40;99.90;;;;;;6069215;23;20023;-82
2021/11/18 06:29:35;;;;;;;45.22;5.50;;;8.80;99.90;;;;;;6068724;23;20014;-83
2021/11/18 06:32:04;;;;;;;43.13;6.15;;;8.40;99.90;;;;;;6067545;23;20073;-79
2021/11/18 06:34:30;;;;;;;36.38;5.97;;;8.40;99.90;;;;;;6068732;23;20014;-81
2021/11/18 06:36:56;;;;;;;37.30;6.70;;;8.50;99.90;;;;;;6068724;23;20182;-82
2021/11/18 06:39:38;;;;;;;;;;;;;;;;;;;;;
2021/11/18 06:43:25;;;;;;;29.92;4.88;;;8.40;99.90;;;;;;6035691;23;20029;-82
2021/11/18 06:45:52;;;;;;;32.45;4.93;;;8.40;99.90;;;;;;5931578;24;20020;-82
2021/11/18 06:48:22;;;;;;;39.55;5.50;;;8.40;99.90;;;;;;5976806;23;20051;-81
2021/11/18 06:50:48;;;;;;;32.08;4.82;;;8.90;99.90;;;;;;5991987;23;20015;-80
2021/11/18 06:53:15;;;;;;;36.83;5.93;;;8.50;99.90;;;;;;6062363;23;20046;-78
2021/11/18 06:55:41;;;;;;;41.88;6.65;;;8.40;99.90;;;;;;6063100;23;20392;-82
2021/11/18 06:58:10;;;;;;;38.58;6.32;;;8.40;99.90;;;;;;6037124;23;20031;-82
2021/11/18 07:00:36;;;;;;;35.25;5.72;;;8.50;99.90;;;;;;6084906;23;20049;-81
2021/11/18 07:03:08;;;;;;;33.10;5.50;;;8.50;99.90;;;;;;6060546;23;20019;-82
2021/11/18 07:05:37;;;;;;;31.85;5.63;;;8.40;99.90;;;;;;6061564;23;20019;-81
2021/11/18 07:08:07;;;;;;;41.22;5.97;;;8.40;99.90;;;;;;6037629;23;20022;-80
2021/11/18 07:10:33;;;;;;;35.75;5.72;;;8.60;99.90;;;;;;6085808;23;20097;-82
2021/11/18 07:12:59;;;;;;;32.08;5.93;;;8.40;99.90;;;;;;6085802;23;20456;-81
2021/11/18 07:15:26;;;;;;;35.55;6.95;;;8.40;99.90;;;;;;6083511;23;20021;-81
2021/11/18 07:17:54;;;;;;;28.10;5.40;;;8.80;99.90;;;;;;6084725;23;20015;-81
2021/11/18 07:20:20;;;;;;;37.67;6.43;;;8.40;99.90;;;;;;6122835;23;20029;-81
2021/11/18 07:22:45;;;;;;;33.13;5.68;;;8.40;99.90;;;;;;6212690;22;20011;-81
2021/11/18 07:25:16;;;;;;;34.22;5.93;;;8.30;99.90;;;;;;6224156;22;20316;-81
2021/11/18 07:27:42;;;;;;;35.58;5.97;;;8.30;99.90;;;;;;6221820;22;20015;-81
2021/11/18 07:30:17;;;;;;;36.22;5.45;;;8.30;99.90;;;;;;6246446;22;20012;-80
2021/11/18 07:33:13;;;;;;;35.75;6.18;;;8.40;99.90;;;;;;6152970;23;20084;-81
2021/11/18 07:36:27;;;;;;;30.42;5.18;;;8.40;99.90;;;;;;6130704;23;20024;-80
2021/11/18 07:39:24;;;;;;;;;;;;;;;;;;;;;
2021/11/18 07:46:06;;;;;;;30.60;5.40;;;8.10;99.90;;;;;;5984569;23;20034;-84
2021/11/18 08:26:45;;;;;;;28.17;5.00;;;8.60;99.90;;;;;;5977570;23;20084;-83
2021/11/18 08:29:29;;;;;;;36.38;5.63;;;9.40;99.90;;;;;;6004993;23;20095;-81
2021/11/18 08:35:42;;;;;;;33.88;5.40;;;8.60;99.90;;;;;;5923135;24;20461;-78
2021/11/18 08:38:30;;;;;;;29.15;5.70;;;8.40;99.90;;;;;;5921390;24;20020;-79
2021/11/18 08:41:11;;;;;;;27.98;5.47;;;9.60;99.90;;;;;;5899361;24;20119;-79
2021/11/18 08:44:12;;;;;;;22.55;4.68;;;8.80;99.90;;;;;;5899417;24;20017;-80
2021/11/18 08:46:48;;;;;;;31.17;4.60;;;9.00;99.90;;;;;;5999120;23;20031;-78
2021/11/18 08:49:16;;;;;;;27.30;6.00;;;9.00;99.90;;;;;;6035787;23;20015;-83
2021/11/18 08:52:06;;;;;;;36.10;6.68;;;9.00;99.90;;;;;;6039035;23;20491;-82
2021/11/18 08:59:01;;;;;;;;;;;;;;;;;;;;;
2021/11/18 09:02:14;;;;;;;26.02;5.32;;;9.00;99.90;;;;;;5949798;24;20024;-81
2021/11/18 09:05:37;;;;;;;;;;;;;;;;;;;;;
2021/11/18 09:08:54;;;;;;;29.38;5.03;;;9.20;99.90;;;;;;6005711;23;20031;-81
2021/11/18 09:11:47;;;;;;;24.10;4.22;;;9.00;99.90;;;;;;5998067;23;20079;-81
2021/11/18 09:14:17;;;;;;;30.70;4.47;;;9.00;99.90;;;;;;6003163;23;20368;-81
2021/11/18 09:24:22;;;;;;;23.88;4.75;;;8.90;99.90;;;;;;5853416;24;20297;-82
2021/11/18 09:27:35;;;;;;;;;;;;;;;;;;;;;
2021/11/18 09:30:39;;;;;;;29.88;5.70;;;8.60;99.90;;;;;;5762158;24;20051;-83
2021/11/18 09:33:18;;;;;;;35.40;5.25;;;9.00;99.90;;;;;;5744356;24;20020;-83
2021/11/18 09:35:57;;;;;;;26.45;5.20;;;9.10;99.90;;;;;;5764739;24;20071;-82
2021/11/18 09:38:59;;;;;;;28.58;4.72;;;9.20;99.90;;;;;;5764556;24;20433;-83
2021/11/18 09:41:52;;;;;;;26.42;4.43;;;9.40;99.90;;;;;;5776323;24;20027;-83
2021/11/18 09:44:44;;;;;;;27.92;5.45;;;9.30;99.90;;;;;;5768235;24;20065;-82
2021/11/18 09:47:27;;;;;;;25.30;4.40;;;9.30;99.90;;;;;;5766100;24;20193;-81
2021/11/18 09:50:31;;;;;;;31.80;4.45;;;9.40;99.90;;;;;;5782348;24;20020;-83
2021/11/18 09:53:29;;;;;;;33.58;4.53;;;9.60;99.90;;;;;;5900917;24;20044;-82
2021/11/18 09:56:13;;;;;;;34.63;4.38;;;9.70;99.90;;;;;;5983477;23;20483;-82
2021/11/18 09:59:03;;;;;;;28.33;4.65;;;9.70;99.90;;;;;;6039965;23;20062;-82
2021/11/18 10:01:59;;;;;;;24.40;4.68;;;9.80;99.90;;;;;;6037546;23;20447;-82
2021/11/18 10:05:11;;;;;;;32.28;4.22;;;9.90;99.90;;;;;;6016075;23;20043;-82
2021/11/18 10:07:36;;;;;;;29.23;4.20;;;10.00;99.90;;;;;;6103991;23;20017;-82
2021/11/18 10:10:20;;;;;;;33.38;5.10;;;10.10;99.90;;;;;;6156612;23;20017;-81
2021/11/18 10:13:13;;;;;;;34.90;4.60;;;10.10;99.90;;;;;;6157140;23;20020;-83
2021/11/18 10:16:14;;;;;;;28.60;4.57;;;10.20;99.90;;;;;;6182281;23;20013;-81
2021/11/18 10:18:44;;;;;;;28.00;4.70;;;10.30;99.90;;;;;;6182983;23;20437;-82
2021/11/18 10:21:28;;;;;;;25.73;4.10;;;10.40;99.90;;;;;;6156791;23;20582;-82
2021/11/18 10:24:01;;;;;;;29.52;4.82;;;10.70;99.90;;;;;;6156666;23;20016;-82
2021/11/18 10:26:35;;;;;;;32.97;5.28;;;10.60;99.90;;;;;;6158073;23;20099;-81
2021/11/18 10:29:01;;;;;;;28.23;5.15;;;10.60;99.90;;;;;;6158703;23;20328;-82
2021/11/18 10:32:02;;;;;;;28.13;5.10;;;10.60;99.90;;;;;;6132322;23;20107;-82
2021/11/18 10:34:50;;;;;;;30.90;4.90;;;10.60;99.90;;;;;;6157590;23;20386;-82
2021/11/18 10:37:25;;;;;;;26.98;5.20;;;10.60;99.90;;;;;;6131620;23;20434;-84
2021/11/18 10:40:00;;;;;;;33.28;5.38;;;10.60;99.90;;;;;;6157365;23;20013;-82
2021/11/18 10:42:40;;;;;;;27.30;5.22;;;10.70;99.90;;;;;;6156513;23;20322;-82
2021/11/18 10:45:28;;;;;;;28.60;4.85;;;10.70;99.90;;;;;;6158033;23;20394;-82
2021/11/18 10:48:30;;;;;;;24.45;4.78;;;10.90;99.90;;;;;;6131698;23;20013;-83
2021/11/18 10:51:02;;;;;;;23.15;4.45;;;11.10;99.90;;;;;;6156381;23;20342;-82
2021/11/18 10:53:31;;;;;;;23.55;4.00;;;11.20;99.90;;;;;;6157355;23;20013;-83
2021/11/18 10:55:59;;;;;;;24.42;4.55;;;11.30;99.90;;;;;;6182068;23;20048;-82
2021/11/18 10:58:25;;;;;;;24.77;4.65;;;11.50;99.90;;;;;;6157057;23;20017;-82
2021/11/18 11:01:15;;;;;;;29.58;4.53;;;11.60;99.90;;;;;;6156514;23;20093;-83
2021/11/18 11:03:45;;;;;;;24.42;4.22;;;11.60;99.90;;;;;;6156508;23;20496;-81
2021/11/18 11:06:20;;;;;;;21.75;3.33;;;11.60;99.90;;;;;;6158130;23;20414;-82
2021/11/18 11:09:06;;;;;;;;;;;11.50;99.90;;;;;;6157911;23;20398;-83
2021/11/18 11:12:03;;;;;;;32.90;4.57;;;11.50;99.90;;;;;;6156993;23;19912;-82
2021/11/18 11:15:22;;;;;;;30.60;4.53;;;11.50;99.90;;;;;;6043712;23;20033;-83
2021/11/18 11:18:24;;;;;;;29.52;4.50;;;11.50;99.90;;;;;;5905697;24;20479;-83
2021/11/18 11:21:12;;;;;;;35.35;5.15;;;11.50;99.90;;;;;;5905626;24;20024;-84
2021/11/18 11:24:14;;;;;;;30.58;4.82;;;11.50;99.90;;;;;;5904700;24;20013;-82
2021/11/18 11:27:07;;;;;;;31.45;4.63;;;11.50;99.90;;;;;;5903967;24;20020;-82
2021/11/18 11:29:56;;;;;;;28.08;4.15;;;11.60;99.90;;;;;;5951167;24;20132;-81
2021/11/18 11:32:32;;;;;;;29.90;4.18;;;11.60;99.90;;;;;;5949828;24;20043;-81
2021/11/18 11:35:06;;;;;;;29.92;4.60;;;11.60;99.90;;;;;;5904710;24;20438;-82
2021/11/18 11:37:53;;;;;;;20.92;3.63;;;11.70;99.90;;;;;;5950800;24;20049;-82
2021/11/18 11:40:46;;;;;;;28.15;4.45;;;11.70;99.90;;;;;;5951150;24;20021;-81
2021/11/18 11:43:40;;;;;;;37.03;4.28;;;11.90;99.90;;;;;;5951463;24;20393;-81
2021/11/18 11:46:13;;;;;;;34.88;4.50;;;11.90;99.90;;;;;;5950787;24;20038;-81
2021/11/18 11:48:56;;;;;;;27.98;4.75;;;11.90;99.90;;;;;;5949912;24;20124;-82
2021/11/18 11:51:37;;;;;;;25.38;4.00;;;12.00;99.90;;;;;;5991258;23;20424;-82
2021/11/18 11:54:17;;;;;;;29.13;4.00;;;12.00;99.90;;;;;;6157169;23;20393;-81
2021/11/18 11:56:50;;;;;;;20.45;3.88;;;12.10;99.90;;;;;;6132808;23;20097;-82
2021/11/18 11:59:32;;;;;;;27.02;4.55;;;12.10;99.90;;;;;;6178310;23;20021;-82
2021/11/18 12:02:06;;;;;;;30.85;4.93;;;12.10;99.90;;;;;;6156493;23;20421;-82
2021/11/18 12:04:38;;;;;;;23.23;3.85;;;12.10;99.90;;;;;;6132559;23;20441;-83
2021/11/18 12:07:26;;;;;;;21.73;4.22;;;12.10;99.90;;;;;;6132680;23;20021;-81
2021/11/18 12:10:13;;;;;;;22.25;4.00;;;11.90;99.90;;;;;;6132515;23;20025;-82
2021/11/18 12:12:46;;;;;;;23.65;4.63;;;11.90;99.90;;;;;;6157916;23;20310;-81
2021/11/18 12:15:15;;;;;;;31.00;4.93;;;11.90;99.90;;;;;;6157074;23;20337;-82
2021/11/18 12:17:47;;;;;;;21.85;3.88;;;11.80;99.90;;;;;;6132031;23;20446;-82
2021/11/18 12:20:26;;;;;;;27.20;4.35;;;11.60;99.90;;;;;;6156321;23;20009;-82
2021/11/18 12:22:59;;;;;;;26.42;4.30;;;11.70;99.90;;;;;;6180847;23;20070;-82
2021/11/18 12:25:48;;;;;;;27.33;4.60;;;11.60;99.90;;;;;;6132767;23;20440;-83
2021/11/18 12:28:16;;;;;;;34.60;4.28;;;11.60;99.90;;;;;;6180547;23;20024;-82
2021/11/18 12:30:53;;;;;;;34.05;4.63;;;11.60;99.90;;;;;;6156083;23;20013;-81
2021/11/18 12:33:19;;;;;;;35.97;4.60;;;11.60;99.90;;;;;;6130827;23;20318;-82
2021/11/18 12:36:05;;;;;;;25.05;4.47;;;11.70;99.90;;;;;;6156527;23;20012;-82
2021/11/18 12:38:49;;;;;;;28.15;4.55;;;11.70;99.90;;;;;;6043797;23;20687;-82
2021/11/18 12:41:43;;;;;;;27.15;4.15;;;11.60;99.90;;;;;;6091422;23;20021;-82
2021/11/18 12:44:53;;;;;;;26.30;4.18;;;11.60;99.90;;;;;;6092914;23;20019;-82
2021/11/18 12:47:40;;;;;;;24.30;4.72;;;11.60;99.90;;;;;;5903888;24;20032;-82
2021/11/18 12:50:26;;;;;;;27.17;4.30;;;11.60;99.90;;;;;;5903920;24;20508;-81
2021/11/18 12:53:10;;;;;;;34.22;5.20;;;11.50;99.90;;;;;;5950433;24;20052;-82
2021/11/18 12:55:59;;;;;;;22.92;3.97;;;11.50;99.90;;;;;;5903754;24;20060;-83
2021/11/18 12:58:25;;;;;;;26.55;4.50;;;11.50;99.90;;;;;;5903409;24;20017;-81
2021/11/18 13:00:57;;;;;;;26.83;4.50;;;11.40;99.90;;;;;;5903474;24;20016;-82
2021/11/18 13:04:00;;;;;;;35.15;4.72;;;11.40;99.90;;;;;;5903530;24;20048;-83
2021/11/18 13:06:29;;;;;;;21.80;4.20;;;11.40;99.90;;;;;;5840530;24;20026;-82
2021/11/18 13:08:56;;;;;;;35.20;5.05;;;11.40;99.90;;;;;;5821325;24;20022;-81
2021/11/18 13:11:25;;;;;;;33.97;4.40;;;11.40;99.90;;;;;;5799694;24;20538;-83
2021/11/18 13:14:08;;;;;;;26.77;4.43;;;11.40;99.90;;;;;;5843941;24;20018;-83
2021/11/18 13:16:48;;;;;;;26.67;4.30;;;11.30;99.90;;;;;;5889984;24;20028;-83
2021/11/18 13:22:49;;;;;;;28.58;4.78;;;11.30;99.90;;;;;;6013161;23;20437;-82
2021/11/18 13:25:14;;;;;;;31.80;4.47;;;11.30;99.90;;;;;;6011801;23;20325;-82
2021/11/18 13:27:45;;;;;;;32.38;5.40;;;11.50;99.90;;;;;;6011585;23;20137;-81
2021/11/18 13:30:49;;;;;;;32.42;4.68;;;11.30;99.90;;;;;;6012098;23;20027;-82
2021/11/18 13:33:25;;;;;;;35.10;5.32;;;11.20;99.90;;;;;;6011128;23;20090;-81
2021/11/18 13:36:11;;;;;;;31.58;5.18;;;11.30;99.90;;;;;;6012167;23;20324;-82
2021/11/18 13:38:51;;;;;;;30.67;4.65;;;11.20;99.90;;;;;;6012857;23;20031;-82
2021/11/18 13:41:20;;;;;;;34.42;4.57;;;11.20;99.90;;;;;;6138361;23;20021;-82
2021/11/18 13:43:50;;;;;;;28.05;4.85;;;11.10;99.90;;;;;;6133779;23;20020;-82
2021/11/18 13:46:24;;;;;;;32.75;5.07;;;11.10;99.90;;;;;;6132374;23;20016;-81
2021/11/18 13:49:23;;;;;;;35.80;4.90;;;11.10;99.90;;;;;;6157609;23;20020;-82
2021/11/18 13:51:55;;;;;;;45.53;5.20;;;11.20;99.90;;;;;;6153111;23;20013;-81
2021/11/18 13:54:34;;;;;;;34.13;5.03;;;11.10;99.90;;;;;;6132753;23;20341;-82
2021/11/18 13:57:28;;;;;;;26.98;4.50;;;11.20;99.90;;;;;;6157719;23;20330;-82
2021/11/18 14:00:00;;;;;;;34.25;4.72;;;11.10;99.90;;;;;;6157432;23;20023;-82
2021/11/18 14:02:45;;;;;;;38.85;6.20;;;11.10;99.90;;;;;;6156009;23;20025;-82
2021/11/18 14:05:19;;;;;;;40.90;5.60;;;11.10;99.90;;;;;;6180636;23;20380;-83
2021/11/18 14:08:19;;;;;;;28.00;4.80;;;11.10;99.90;;;;;;6155619;23;20427;-83
2021/11/18 14:10:53;;;;;;;30.73;4.85;;;11.10;99.90;;;;;;6091600;23;20057;-83
2021/11/18 14:13:40;;;;;;;34.13;4.50;;;11.00;99.90;;;;;;6092373;23;20022;-82
2021/11/18 14:16:14;;;;;;;39.92;5.45;;;11.00;99.90;;;;;;6042578;23;20113;-82
2021/11/18 14:19:00;;;;;;;28.98;4.95;;;11.00;99.90;;;;;;6091467;23;20073;-82
2021/11/18 14:21:32;;;;;;;38.33;5.03;;;11.00;99.90;;;;;;6092740;23;20022;-84
2021/11/18 14:24:01;;;;;;;31.75;4.63;;;11.00;99.90;;;;;;6090578;23;20026;-82
2021/11/18 14:26:33;;;;;;;31.80;5.63;;;11.00;99.90;;;;;;6090334;23;20781;-82
2021/11/18 14:33:17;;;;;;;29.30;5.18;;;11.00;99.90;;;;;;5922391;24;20812;-81
2021/11/18 14:47:24;;;;;;;;;;;;;;;;;;;;;
2021/11/18 14:54:19;;;;;;;;;;;;;;;;;;;;;
2021/11/18 14:57:00;;;;;;;43.63;5.82;;;11.30;99.90;;;;;;5894699;24;20026;-79
2021/11/18 15:03:48;;;;;;;33.80;5.38;;;11.30;99.90;;;;;;5921310;23;20483;-78
2021/11/18 15:06:50;;;;;;;29.48;4.20;;;11.20;99.90;;;;;;5857631;24;20033;-77
2021/11/18 15:12:46;;;;;;;;;;;11.20;99.90;;;;;;5922464;24;20033;-80
2021/11/18 15:15:40;;;;;;;30.42;4.82;;;11.30;99.90;;;;;;5920481;24;19971;-78
2021/11/18 15:18:27;;;;;;;;;;;11.20;99.90;;;;;;5901575;24;20486;-79
2021/11/18 15:21:12;;;;;;;25.52;4.57;;;11.20;99.90;;;;;;5923293;24;20383;-79
2021/11/18 15:23:55;;;;;;;35.13;5.00;;;11.50;99.90;;;;;;5923471;24;20024;-78
2021/11/18 15:26:24;;;;;;;39.58;4.97;;;11.80;99.90;;;;;;5901351;24;20014;-78
2021/11/18 15:29:07;;;;;;;38.20;5.30;;;11.20;99.90;;;;;;5922711;24;20022;-83
2021/11/18 15:31:37;;;;;;;39.58;5.20;;;10.90;99.90;;;;;;5921409;24;20021;-83
2021/11/18 15:34:20;;;;;;;29.25;4.90;;;11.20;99.90;;;;;;5876937;24;20017;-83
2021/11/18 15:36:51;;;;;;;28.85;4.97;;;11.20;99.90;;;;;;5957994;23;20046;-83
2021/11/18 15:43:18;;;;;;;31.88;4.90;;;11.20;99.90;;;;;;5969774;23;20055;-79
2021/11/18 15:46:44;;;;;;;;;;;;;;;;;;;;;
2021/11/18 15:49:38;;;;;;;29.75;5.40;;;11.00;99.90;;;;;;6026827;23;20133;-77
2021/11/18 15:52:24;;;;;;;33.78;4.90;;;11.20;99.90;;;;;;6008776;23;20046;-77
2021/11/18 15:55:10;;;;;;;34.00;5.15;;;11.20;99.90;;;;;;6033600;23;20019;-79
2021/11/18 15:58:12;;;;;;;31.65;4.65;;;11.20;99.90;;;;;;6009695;23;20041;-78
2021/11/18 16:00:42;;;;;;;32.80;5.03;;;11.20;99.90;;;;;;6009450;23;20385;-78
2021/11/18 16:03:14;;;;;;;36.42;5.30;;;11.20;99.90;;;;;;6009796;23;20090;-77
2021/11/18 16:09:08;;;;;;;29.73;5.22;;;11.20;99.90;;;;;;6009325;23;20472;-76
2021/11/18 16:11:55;;;;;;;32.45;5.40;;;11.20;99.90;;;;;;6010266;23;20020;-77
2021/11/18 16:14:26;;;;;;;37.35;5.15;;;11.20;99.90;;;;;;6010560;23;20119;-79
2021/11/18 16:16:59;;;;;;;25.33;5.22;;;11.20;99.90;;;;;;6009628;23;20087;-79
2021/11/18 16:19:31;;;;;;;27.55;4.90;;;11.20;99.90;;;;;;6044906;23;20014;-82
2021/11/18 16:22:06;;;;;;;29.73;5.45;;;11.20;99.90;;;;;;6066711;23;20049;-81
2021/11/18 16:24:51;;;;;;;35.92;5.32;;;11.20;99.90;;;;;;6094267;23;20089;-81
2021/11/18 16:27:17;;;;;;;33.88;4.90;;;11.20;99.90;;;;;;6131382;23;20095;-80
2021/11/18 16:29:44;;;;;;;30.17;4.88;;;11.20;99.90;;;;;;6154180;23;20087;-82
2021/11/18 16:32:17;;;;;;;38.85;5.63;;;11.20;99.90;;;;;;6154759;23;20017;-80
2021/11/18 16:34:46;;;;;;;30.35;4.90;;;11.20;99.90;;;;;;6129649;23;20108;-81
2021/11/18 16:37:22;;;;;;;29.73;5.43;;;11.80;99.90;;;;;;6153200;23;20071;-80
2021/11/18 16:39:50;;;;;;;32.65;5.55;;;11.20;99.90;;;;;;6128965;23;20021;-81
2021/11/18 16:42:18;;;;;;;36.47;5.45;;;11.20;99.90;;;;;;6151874;23;20930;-80
2021/11/18 16:44:47;;;;;;;30.45;4.47;;;11.20;99.90;;;;;;6153040;23;20017;-81
2021/11/18 16:47:17;;;;;;;30.77;5.20;;;11.20;99.90;;;;;;6155554;23;20349;-78
2021/11/18 16:49:43;;;;;;;31.40;5.03;;;11.20;99.90;;;;;;6154748;23;20013;-78
2021/11/18 16:52:20;;;;;;;29.02;5.25;;;11.10;99.90;;;;;;6155539;23;20016;-82
2021/11/18 16:54:47;;;;;;;34.25;5.68;;;11.60;99.90;;;;;;6132477;23;20009;-81
2021/11/18 16:57:15;;;;;;;41.30;6.53;;;11.00;99.90;;;;;;6131509;23;20021;-77
2021/11/18 16:59:45;;;;;;;30.00;5.53;;;11.10;99.90;;;;;;6154635;23;20059;-79
2021/11/18 17:02:14;;;;;;;30.48;5.40;;;11.10;99.90;;;;;;6130923;23;20640;-78
2021/11/18 17:04:41;;;;;;;38.97;5.80;;;11.10;99.90;;;;;;6130134;23;20096;-77
2021/11/18 17:07:08;;;;;;;34.95;5.25;;;11.00;99.90;;;;;;6129702;23;20059;-77
2021/11/18 17:09:35;;;;;;;34.08;5.45;;;11.10;99.90;;;;;;6131626;23;20252;-77
2021/11/18 17:12:06;;;;;;;33.30;5.28;;;11.10;99.90;;;;;;6131067;23;20448;-76
2021/11/18 17:14:40;;;;;;;30.45;5.40;;;11.00;99.90;;;;;;6129801;23;20574;-79
2021/11/18 17:17:30;;;;;;;33.00;5.57;;;11.00;99.90;;;;;;6181828;23;20048;-82
2021/11/18 17:19:55;;;;;;;38.08;6.45;;;11.00;99.90;;;;;;6156114;23;20013;-81
2021/11/18 17:22:27;;;;;;;32.78;5.70;;;11.40;99.90;;;;;;6131084;23;20049;-82
2021/11/18 17:25:16;;;;;;;36.75;6.53;;;11.00;99.90;;;;;;6129650;23;20017;-83
2021/11/18 17:27:45;;;;;;;35.58;6.95;;;11.00;99.90;;;;;;6153738;23;20391;-81
2021/11/18 17:30:55;;;;;;;32.63;6.43;;;11.00;99.90;;;;;;6182215;23;20325;-82
2021/11/18 17:33:34;;;;;;;30.23;6.28;;;10.90;99.90;;;;;;6128440;23;20013;-79
2021/11/18 17:36:52;;;;;;;42.25;6.45;;;10.60;99.90;;;;;;6086513;23;20018;-79
2021/11/18 17:39:41;;;;;;;41.15;6.47;;;10.90;99.90;;;;;;6087405;23;20026;-79
2021/11/18 17:42:10;;;;;;;34.50;7.03;;;10.90;99.90;;;;;;6002087;23;20428;-80
2021/11/18 17:44:38;;;;;;;31.05;6.68;;;10.90;99.90;;;;;;6002900;23;20083;-80
2021/11/18 17:47:11;;;;;;;40.60;6.80;;;10.90;99.90;;;;;;6003002;23;20058;-79
2021/11/18 17:49:53;;;;;;;40.15;6.75;;;10.90;99.90;;;;;;5979195;23;20022;-78
2021/11/18 17:52:25;;;;;;;44.85;7.22;;;10.90;99.90;;;;;;5977085;23;20448;-80
2021/11/18 17:54:52;;;;;;;35.63;7.20;;;10.90;99.90;;;;;;6027186;23;20015;-80
2021/11/18 17:57:20;;;;;;;40.60;7.63;;;10.90;99.90;;;;;;6027211;23;20266;-78
2021/11/18 17:59:46;;;;;;;43.58;7.63;;;10.90;99.90;;;;;;6024445;23;20019;-79
2021/11/18 18:02:19;;;;;;;40.53;9.00;;;10.80;99.90;;;;;;6029396;23;20016;-81
2021/11/18 18:04:45;;;;;;;41.55;8.95;;;10.90;99.90;;;;;;5978702;23;20055;-80
2021/11/18 18:07:11;;;;;;;38.67;9.15;;;10.90;99.90;;;;;;6025346;23;20019;-80
2021/11/18 18:09:42;;;;;;;38.20;8.98;;;10.90;99.90;;;;;;6067207;23;20022;-81
2021/11/18 18:12:14;;;;;;;33.72;7.30;;;10.90;99.90;;;;;;6067362;23;20037;-80
2021/11/18 18:14:54;;;;;;;46.00;7.75;;;10.90;99.90;;;;;;6065249;23;20017;-85
2021/11/18 18:17:34;;;;;;;36.35;7.78;;;10.90;99.90;;;;;;6067735;23;20026;-84
2021/11/18 18:21:10;;;;;;;;;;;;;;;;;;;;;
2021/11/18 18:25:14;;;;;;;30.55;7.13;;;11.00;99.90;;;;;;6098389;23;20347;-83
2021/11/18 18:28:44;;;;;;;33.60;6.25;;;10.90;99.90;;;;;;5894057;24;20025;-85
2021/11/18 18:36:03;;;;;;;32.35;6.78;;;10.70;99.90;;;;;;5841021;24;20444;-85
2021/11/18 18:38:32;;;;;;;31.83;5.85;;;11.00;99.90;;;;;;5863845;24;20022;-84
2021/11/18 18:41:03;;;;;;;37.70;6.85;;;11.80;99.90;;;;;;5840515;24;20010;-85
2021/11/18 18:43:33;;;;;;;30.00;6.45;;;11.00;99.90;;;;;;5841058;24;20010;-84